Time;durP1;ratioP1;P1;durP2;ratioP2;P2;SDS_P1;SDS_P2;PMS_P1;PMS_P2;Temp;Humidity;BMP_temperature;BMP_pressure;BME280_temperature;BME280_humidity;BME280_pressure;Samples;Min_cycle;Max_cycle;Signal;HPM_P1;HPM_P2
2022/12/06 00:01:38;;;;;;;8.50;5.45;;;7.00;99.90;;;;;;5016369;28;20026;-71
2022/12/06 00:04:10;;;;;;;8.90;4.95;;;6.90;99.90;;;;;;5016407;28;20022;-72
2022/12/06 00:06:39;;;;;;;9.02;4.90;;;6.90;99.90;;;;;;5015979;28;20442;-71
2022/12/06 00:09:06;;;;;;;6.97;4.63;;;6.80;99.90;;;;;;5015023;28;20065;-71
2022/12/06 00:11:34;;;;;;;7.35;3.83;;;6.90;99.90;;;;;;5015811;28;20026;-70
2022/12/06 00:14:05;;;;;;;7.22;5.65;;;6.90;99.90;;;;;;5015825;28;20040;-70
2022/12/06 00:16:34;;;;;;;5.63;4.40;;;6.90;99.90;;;;;;5014909;28;20034;-70
2022/12/06 00:19:00;;;;;;;7.70;5.10;;;6.90;99.90;;;;;;5015975;28;20033;-71
2022/12/06 00:21:31;;;;;;;6.93;4.47;;;6.90;99.90;;;;;;5016488;28;20018;-73
2022/12/06 00:24:00;;;;;;;8.52;4.80;;;6.90;99.90;;;;;;5015649;28;20026;-71
2022/12/06 00:26:28;;;;;;;12.30;4.78;;;7.00;99.90;;;;;;5015587;28;20026;-71
2022/12/06 00:28:56;;;;;;;7.55;4.80;;;6.90;99.90;;;;;;5015687;28;20033;-70
2022/12/06 00:31:24;;;;;;;6.75;4.97;;;6.90;99.90;;;;;;5015807;28;20021;-71
2022/12/06 00:33:50;;;;;;;5.63;4.57;;;7.00;99.90;;;;;;5015610;28;20064;-71
2022/12/06 00:36:20;;;;;;;7.13;4.55;;;7.10;99.90;;;;;;5014607;28;20034;-73
2022/12/06 00:38:51;;;;;;;8.27;5.18;;;7.10;99.90;;;;;;5015469;28;20456;-71
2022/12/06 00:41:21;;;;;;;7.57;4.75;;;7.00;99.90;;;;;;5015693;28;20033;-71
2022/12/06 00:43:48;;;;;;;6.57;4.78;;;7.00;99.90;;;;;;5015320;28;20444;-72
2022/12/06 00:46:16;;;;;;;10.88;4.82;;;7.00;99.90;;;;;;5014485;28;20044;-72
2022/12/06 00:48:43;;;;;;;9.00;5.05;;;7.00;99.90;;;;;;5015298;28;20044;-72
2022/12/06 00:51:09;;;;;;;8.13;4.90;;;7.10;99.90;;;;;;5014551;28;20438;-72
2022/12/06 00:53:37;;;;;;;7.80;4.57;;;7.00;99.90;;;;;;5015078;28;20025;-72
2022/12/06 00:56:03;;;;;;;6.10;5.10;;;7.00;99.90;;;;;;5014400;28;20036;-71
2022/12/06 00:58:29;;;;;;;10.45;5.78;;;7.00;99.90;;;;;;5015130;28;20065;-72
2022/12/06 01:00:55;;;;;;;5.60;4.55;;;7.00;99.90;;;;;;5015231;28;20467;-71
2022/12/06 01:03:21;;;;;;;8.85;5.20;;;7.00;99.90;;;;;;5014983;28;20037;-71
2022/12/06 01:05:51;;;;;;;7.90;4.93;;;7.00;99.90;;;;;;5015352;28;20117;-71
2022/12/06 01:08:18;;;;;;;9.65;5.90;;;7.00;99.90;;;;;;5015357;28;20026;-70
2022/12/06 01:10:54;;;;;;;9.02;5.28;;;7.00;99.90;;;;;;5015042;28;20457;-72
2022/12/06 01:13:22;;;;;;;7.97;5.47;;;6.90;99.90;;;;;;5014960;28;20022;-71
2022/12/06 01:15:48;;;;;;;9.07;5.97;;;6.90;99.90;;;;;;5015215;28;20104;-72
2022/12/06 01:18:14;;;;;;;8.80;5.40;;;7.00;99.90;;;;;;5015855;28;20419;-72
2022/12/06 01:20:40;;;;;;;10.75;5.38;;;7.00;99.90;;;;;;5016845;28;20014;-69
2022/12/06 01:23:10;;;;;;;7.63;5.40;;;6.90;99.90;;;;;;5015191;28;20072;-73
2022/12/06 01:25:38;;;;;;;9.85;5.50;;;7.00;99.90;;;;;;5015120;28;20041;-71
2022/12/06 01:28:04;;;;;;;10.60;5.45;;;7.10;99.90;;;;;;5014920;28;20100;-73
2022/12/06 01:30:30;;;;;;;9.55;6.07;;;7.00;99.90;;;;;;5017901;28;20046;-71
2022/12/06 01:32:55;;;;;;;10.60;5.53;;;7.00;99.90;;;;;;5014673;28;20439;-71
2022/12/06 01:35:21;;;;;;;13.45;6.40;;;7.10;99.90;;;;;;5030218;28;20097;-72
2022/12/06 01:37:47;;;;;;;8.13;5.65;;;7.10;99.90;;;;;;5016457;28;20065;-71
2022/12/06 01:40:13;;;;;;;10.77;6.30;;;7.00;99.90;;;;;;5017215;28;20505;-71
2022/12/06 01:42:39;;;;;;;10.55;5.78;;;7.00;99.90;;;;;;5014782;28;20347;-71
2022/12/06 01:45:05;;;;;;;10.02;6.53;;;6.90;99.90;;;;;;5014822;28;20022;-72
2022/12/06 01:47:37;;;;;;;10.60;5.97;;;6.90;99.90;;;;;;5014657;28;20470;-71
2022/12/06 01:50:08;;;;;;;;;;;6.90;99.90;;;;;;5014824;28;20030;-72
2022/12/06 01:52:46;;;;;;;14.68;6.90;;;6.90;99.90;;;;;;5015128;28;19948;-72
2022/12/06 01:55:13;;;;;;;10.45;6.15;;;6.90;99.90;;;;;;5016013;28;20081;-71
2022/12/06 01:57:39;;;;;;;14.20;6.50;;;7.00;99.90;;;;;;5020412;28;20104;-72
2022/12/06 02:00:07;;;;;;;9.40;5.75;;;7.00;99.90;;;;;;5014710;28;20054;-71
2022/12/06 02:02:33;;;;;;;12.65;6.20;;;7.00;99.90;;;;;;5014838;28;20014;-71
2022/12/06 02:05:02;;;;;;;9.52;5.43;;;7.00;99.90;;;;;;5013511;28;20041;-71
2022/12/06 02:07:31;;;;;;;11.20;5.93;;;7.00;99.90;;;;;;5015387;28;20054;-71
2022/12/06 02:10:00;;;;;;;10.90;5.80;;;7.10;99.90;;;;;;5015109;28;20048;-72
2022/12/06 02:12:25;;;;;;;9.32;5.65;;;7.10;99.90;;;;;;5013390;28;20106;-72
2022/12/06 02:14:53;;;;;;;9.68;5.63;;;7.10;99.90;;;;;;5014526;28;20427;-71
2022/12/06 02:17:30;;;;;;;9.80;5.75;;;7.10;99.90;;;;;;5014289;28;20030;-72
2022/12/06 02:20:14;;;;;;;9.02;5.72;;;7.10;99.90;;;;;;5014343;28;20022;-72
2022/12/06 02:22:49;;;;;;;10.18;5.60;;;7.10;99.90;;;;;;5014408;28;20042;-72
2022/12/06 02:25:43;;;;;;;10.65;6.45;;;7.10;99.90;;;;;;5014097;28;20030;-72
2022/12/06 02:28:44;;;;;;;12.40;6.25;;;7.10;99.90;;;;;;5014143;28;20303;-72
2022/12/06 02:31:40;;;;;;;10.40;6.13;;;7.10;99.90;;;;;;5014380;28;20065;-72
2022/12/06 02:34:08;;;;;;;9.73;6.47;;;7.10;99.90;;;;;;5014718;28;20100;-72
2022/12/06 02:37:02;;;;;;;9.77;6.35;;;7.10;99.90;;;;;;5030412;28;20037;-71
2022/12/06 02:39:34;;;;;;;14.20;5.82;;;7.10;99.90;;;;;;5017448;28;20022;-72
2022/12/06 02:42:14;;;;;;;8.80;5.68;;;7.10;99.90;;;;;;5017675;28;20022;-72
2022/12/06 02:44:52;;;;;;;9.00;6.10;;;7.10;99.90;;;;;;5017416;28;20462;-73
2022/12/06 02:47:21;;;;;;;11.13;6.50;;;7.10;99.90;;;;;;5016878;28;20400;-70
2022/12/06 02:49:49;;;;;;;11.57;7.00;;;7.10;99.90;;;;;;5017497;28;20029;-73
2022/12/06 02:52:16;;;;;;;9.65;6.65;;;7.10;99.90;;;;;;5017636;28;20034;-72
2022/12/06 02:54:45;;;;;;;10.73;6.82;;;7.10;99.90;;;;;;5017156;28;20034;-72
2022/12/06 02:57:10;;;;;;;9.85;6.40;;;7.00;99.90;;;;;;5017169;28;20086;-72
2022/12/06 02:59:36;;;;;;;10.23;6.03;;;7.10;99.90;;;;;;5017902;28;20148;-72
2022/12/06 03:02:04;;;;;;;10.60;6.85;;;7.10;99.90;;;;;;5017470;28;20026;-72
2022/12/06 03:04:33;;;;;;;9.57;6.70;;;7.10;99.90;;;;;;5017188;28;20428;-72
2022/12/06 03:07:10;;;;;;;15.38;6.47;;;7.20;99.90;;;;;;5017802;28;20034;-73
2022/12/06 03:10:10;;;;;;;9.55;6.25;;;7.20;99.90;;;;;;5033262;28;20030;-72
2022/12/06 03:12:48;;;;;;;12.10;6.57;;;7.10;99.90;;;;;;5017253;28;20464;-72
2022/12/06 03:15:16;;;;;;;12.23;6.57;;;7.10;99.90;;;;;;5016618;28;20030;-72
2022/12/06 03:17:52;;;;;;;11.88;6.45;;;7.10;99.90;;;;;;5016849;28;20025;-73
2022/12/06 03:20:26;;;;;;;11.70;6.63;;;7.10;99.90;;;;;;5032322;28;20551;-73
2022/12/06 03:22:58;;;;;;;12.43;6.38;;;7.20;99.90;;;;;;5017031;28;20022;-72
2022/12/06 03:25:25;;;;;;;9.82;6.30;;;7.10;99.90;;;;;;5016772;28;20029;-72
2022/12/06 03:27:55;;;;;;;10.95;6.55;;;7.10;99.90;;;;;;5016709;28;20032;-72
2022/12/06 03:30:21;;;;;;;13.38;6.57;;;7.10;99.90;;;;;;5015725;28;20084;-71
2022/12/06 03:32:49;;;;;;;10.52;6.60;;;7.10;99.90;;;;;;5016823;28;20441;-71
2022/12/06 03:35:22;;;;;;;10.55;6.53;;;7.10;99.90;;;;;;5015378;28;20420;-72
2022/12/06 03:37:54;;;;;;;10.10;6.38;;;7.10;99.90;;;;;;5032010;28;20095;-71
2022/12/06 03:40:27;;;;;;;11.25;7.00;;;7.20;99.90;;;;;;5015995;28;20355;-72
2022/12/06 03:42:54;;;;;;;13.32;6.78;;;7.20;99.90;;;;;;5016690;28;20026;-72
2022/12/06 03:45:24;;;;;;;10.18;6.05;;;7.20;99.90;;;;;;5016318;28;20432;-72
2022/12/06 03:48:00;;;;;;;11.65;6.55;;;7.20;99.90;;;;;;5015576;28;20506;-71
2022/12/06 03:50:36;;;;;;;11.50;6.82;;;7.20;99.90;;;;;;5016870;28;20022;-72
2022/12/06 03:53:02;;;;;;;12.05;7.03;;;7.20;99.90;;;;;;5016798;28;20037;-72
2022/12/06 03:55:27;;;;;;;15.63;5.82;;;7.20;99.90;;;;;;5016251;28;20104;-71
2022/12/06 03:57:53;;;;;;;15.02;6.60;;;7.20;99.90;;;;;;5016569;28;20065;-72
2022/12/06 04:00:19;;;;;;;13.45;6.75;;;7.20;99.90;;;;;;5016384;28;20076;-72
2022/12/06 04:02:47;;;;;;;15.95;7.05;;;7.30;99.90;;;;;;5016626;28;20021;-71
2022/12/06 04:05:15;;;;;;;11.48;7.13;;;7.30;99.90;;;;;;5019560;28;20018;-71
2022/12/06 04:07:40;;;;;;;12.95;7.15;;;7.30;99.90;;;;;;5033459;28;20022;-70
2022/12/06 04:10:07;;;;;;;11.82;6.78;;;7.20;99.90;;;;;;5016239;28;20181;-71
2022/12/06 04:15:19;;;;;;;9.32;6.07;;;7.10;99.90;;;;;;5018364;28;20483;-72
2022/12/06 04:23:02;;;;;;;11.07;6.60;;;7.10;99.90;;;;;;5019094;28;20057;-72
2022/12/06 04:23:20;;;;;;;9.60;6.05;;;7.20;99.90;;;;;;5018782;28;20099;-71
2022/12/06 04:25:46;;;;;;;12.23;6.85;;;7.20;99.90;;;;;;5016938;28;20033;-71
2022/12/06 04:39:10;;;;;;;14.02;6.82;;;7.20;99.90;;;;;;5018442;28;20088;-71
2022/12/06 04:44:25;;;;;;;8.40;5.57;;;7.30;99.90;;;;;;5016344;28;20037;-72
2022/12/06 04:46:53;;;;;;;9.70;6.32;;;7.30;99.90;;;;;;5015808;28;20474;-72
2022/12/06 04:49:19;;;;;;;8.85;5.53;;;7.30;99.90;;;;;;5015451;28;20402;-72
2022/12/06 04:51:47;;;;;;;12.23;5.90;;;7.30;99.90;;;;;;5030699;28;20064;-72
2022/12/06 04:54:13;;;;;;;12.00;6.18;;;7.30;99.90;;;;;;5015185;28;20030;-73
2022/12/06 04:56:38;;;;;;;10.27;6.45;;;7.30;99.90;;;;;;5015427;28;20052;-72
2022/12/06 04:59:07;;;;;;;9.80;5.60;;;7.40;99.90;;;;;;5030365;28;20065;-73
2022/12/06 05:01:35;;;;;;;11.07;6.15;;;7.50;99.90;;;;;;5015085;28;20099;-73
2022/12/06 05:04:08;;;;;;;18.67;6.72;;;7.40;99.90;;;;;;5015326;28;20101;-72
2022/12/06 05:06:36;;;;;;;11.40;5.65;;;7.40;99.90;;;;;;5015565;28;20105;-72
2022/12/06 05:09:03;;;;;;;11.02;6.55;;;7.40;99.90;;;;;;5015115;28;20038;-73
2022/12/06 05:11:28;;;;;;;14.95;6.50;;;7.30;99.90;;;;;;5014030;28;20040;-71
2022/12/06 05:13:54;;;;;;;11.73;6.43;;;7.30;99.90;;;;;;5014876;28;20025;-73
2022/12/06 05:16:20;;;;;;;14.45;6.47;;;7.30;99.90;;;;;;5014857;28;20061;-72
2022/12/06 05:18:45;;;;;;;14.15;6.53;;;7.30;99.90;;;;;;5013877;28;20026;-73
2022/12/06 05:21:19;;;;;;;12.20;6.82;;;7.30;99.90;;;;;;5014826;28;20032;-73
2022/12/06 05:23:45;;;;;;;10.88;6.47;;;7.30;99.90;;;;;;5014821;28;20018;-74
2022/12/06 05:26:14;;;;;;;19.35;8.15;;;7.30;99.90;;;;;;5014780;28;20036;-73
2022/12/06 05:28:40;;;;;;;20.13;7.63;;;7.20;99.90;;;;;;5015198;28;20068;-73
2022/12/06 05:31:06;;;;;;;15.30;7.10;;;7.30;99.90;;;;;;5015097;28;20375;-73
2022/12/06 05:33:35;;;;;;;12.75;6.75;;;7.30;99.90;;;;;;5014908;28;20030;-74
2022/12/06 05:36:13;;;;;;;11.10;6.18;;;7.30;99.90;;;;;;5015273;28;20034;-74
2022/12/06 05:38:39;;;;;;;14.05;6.68;;;7.30;99.90;;;;;;5015085;28;20022;-74
2022/12/06 05:41:05;;;;;;;14.13;6.40;;;7.30;99.90;;;;;;5014869;28;20026;-73
2022/12/06 05:43:34;;;;;;;9.60;6.35;;;7.20;99.90;;;;;;5014729;28;20026;-73
2022/12/06 05:45:59;;;;;;;12.05;6.30;;;7.20;99.90;;;;;;5014994;28;20014;-72
2022/12/06 05:48:25;;;;;;;9.80;5.75;;;7.10;99.90;;;;;;5015000;28;20359;-73
2022/12/06 05:50:52;;;;;;;13.77;6.10;;;7.10;99.90;;;;;;5014942;28;20028;-74
2022/12/06 05:53:18;;;;;;;13.38;6.43;;;7.10;99.90;;;;;;5013386;28;20080;-73
2022/12/06 05:55:47;;;;;;;8.93;6.05;;;7.20;99.90;;;;;;5013413;28;20088;-71
2022/12/06 05:58:12;;;;;;;12.23;5.88;;;7.20;99.90;;;;;;5014849;28;20026;-73
2022/12/06 06:00:38;;;;;;;12.93;5.80;;;7.10;99.90;;;;;;5013311;28;20030;-73
2022/12/06 06:03:07;;;;;;;13.10;6.20;;;7.10;99.90;;;;;;5014342;28;20094;-72
2022/12/06 06:05:33;;;;;;;14.05;6.50;;;7.10;99.90;;;;;;5014356;28;20037;-72
2022/12/06 06:07:58;;;;;;;10.15;6.13;;;7.10;99.90;;;;;;5014057;28;20025;-73
2022/12/06 06:10:24;;;;;;;11.82;5.88;;;7.20;99.90;;;;;;5014210;28;20519;-72
2022/12/06 06:12:50;;;;;;;13.70;6.43;;;7.20;99.90;;;;;;5017012;28;20025;-73
2022/12/06 06:15:16;;;;;;;10.70;6.20;;;7.20;99.90;;;;;;5033356;28;20041;-73
2022/12/06 06:17:42;;;;;;;15.88;6.03;;;7.20;99.90;;;;;;5033428;28;20030;-73
2022/12/06 06:20:10;;;;;;;10.90;6.30;;;7.30;99.90;;;;;;5017595;28;20029;-72
2022/12/06 06:22:37;;;;;;;13.95;5.80;;;7.30;99.90;;;;;;5018118;28;20018;-73
2022/12/06 06:25:04;;;;;;;12.57;5.90;;;7.20;99.90;;;;;;5017875;28;20116;-73
2022/12/06 06:27:38;;;;;;;12.25;5.85;;;7.10;99.90;;;;;;5017890;28;20022;-71
2022/12/06 06:30:07;;;;;;;12.40;5.93;;;7.10;99.90;;;;;;5017700;28;20418;-72
2022/12/06 06:32:35;;;;;;;15.60;5.95;;;7.00;99.90;;;;;;5017998;28;20064;-73
2022/12/06 06:35:02;;;;;;;14.07;5.38;;;7.10;99.90;;;;;;5017854;28;20067;-73
2022/12/06 06:37:27;;;;;;;13.18;6.07;;;7.20;99.90;;;;;;5016618;28;20033;-72
2022/12/06 06:39:53;;;;;;;12.20;5.88;;;7.20;99.90;;;;;;5017489;28;20033;-72
2022/12/06 06:42:19;;;;;;;11.80;5.35;;;7.10;99.90;;;;;;5016315;28;20026;-73
2022/12/06 06:44:44;;;;;;;13.07;5.20;;;7.10;99.90;;;;;;5017450;28;20045;-74
2022/12/06 06:47:10;;;;;;;11.45;5.22;;;7.10;99.90;;;;;;5017702;28;20089;-72
2022/12/06 06:49:36;;;;;;;14.95;5.40;;;7.10;99.90;;;;;;5017640;28;20355;-72
2022/12/06 06:52:02;;;;;;;9.95;5.68;;;7.10;99.90;;;;;;5017975;28;20399;-73
2022/12/06 06:54:27;;;;;;;11.52;5.38;;;7.00;99.90;;;;;;5017174;28;20398;-74
2022/12/06 06:56:55;;;;;;;14.35;5.97;;;7.00;99.90;;;;;;5018061;28;20068;-76
2022/12/06 06:59:23;;;;;;;12.27;6.30;;;7.00;99.90;;;;;;5018193;28;20033;-73
2022/12/06 07:01:50;;;;;;;12.70;6.53;;;7.10;99.90;;;;;;5020108;28;20022;-74
2022/12/06 07:04:16;;;;;;;15.13;5.65;;;7.10;99.90;;;;;;5022488;28;20064;-73
2022/12/06 07:06:42;;;;;;;12.02;6.35;;;7.20;99.90;;;;;;5019972;28;20041;-73
2022/12/06 07:09:08;;;;;;;9.88;5.72;;;7.10;99.90;;;;;;5017829;28;20037;-72
2022/12/06 07:11:36;;;;;;;9.60;5.88;;;7.10;99.90;;;;;;5017164;28;20438;-73
2022/12/06 07:14:04;;;;;;;16.73;7.20;;;7.10;99.90;;;;;;5018075;28;20048;-73
2022/12/06 07:16:30;;;;;;;8.48;5.63;;;7.10;99.90;;;;;;5017065;28;20025;-72
2022/12/06 07:18:56;;;;;;;12.50;6.72;;;7.10;99.90;;;;;;5032361;28;20032;-72
2022/12/06 07:21:24;;;;;;;12.45;5.60;;;7.20;99.90;;;;;;5017243;28;20029;-71
2022/12/06 07:23:52;;;;;;;13.30;5.95;;;7.10;99.90;;;;;;5017535;28;20456;-71
2022/12/06 07:26:25;;;;;;;9.32;5.75;;;7.20;99.90;;;;;;5017275;28;20065;-71
2022/12/06 07:28:51;;;;;;;17.02;7.30;;;7.00;99.90;;;;;;5020038;28;20416;-72
2022/12/06 07:31:24;;;;;;;26.90;13.23;;;7.00;99.90;;;;;;5019527;28;20038;-72
2022/12/06 07:33:55;;;;;;;20.35;11.98;;;7.10;99.90;;;;;;5018289;28;20049;-73
2022/12/06 07:36:26;;;;;;;16.17;6.70;;;7.10;99.90;;;;;;5016475;28;20366;-73
2022/12/06 07:38:54;;;;;;;14.35;5.90;;;7.10;99.90;;;;;;5016080;28;20116;-71
2022/12/06 07:46:55;;;;;;;10.50;5.80;;;7.10;99.90;;;;;;5016662;28;20040;-72
2022/12/06 07:49:21;;;;;;;9.50;5.78;;;7.10;99.90;;;;;;4999051;28;20026;-72
2022/12/06 07:51:49;;;;;;;13.38;5.53;;;7.10;99.90;;;;;;5015102;28;20036;-73
2022/12/06 07:54:16;;;;;;;12.98;5.72;;;7.10;99.90;;;;;;5017007;28;20038;-73
2022/12/06 07:56:44;;;;;;;10.00;5.28;;;7.10;99.90;;;;;;5016402;28;20045;-73
2022/12/06 07:59:11;;;;;;;13.68;5.85;;;7.20;99.90;;;;;;5015701;28;20029;-73
2022/12/06 08:01:37;;;;;;;12.30;5.20;;;7.00;99.90;;;;;;5016071;28;20022;-72
2022/12/06 08:04:04;;;;;;;11.02;5.80;;;7.10;99.90;;;;;;5016083;28;20022;-73
2022/12/06 08:06:31;;;;;;;14.38;5.57;;;7.10;99.90;;;;;;5016589;28;20452;-71
2022/12/06 08:08:57;;;;;;;10.98;4.82;;;7.10;99.90;;;;;;5016318;28;20030;-72
2022/12/06 08:11:23;;;;;;;13.02;5.15;;;7.10;99.90;;;;;;5016327;28;20029;-72
2022/12/06 08:13:49;;;;;;;14.50;5.68;;;7.10;99.90;;;;;;5016158;28;20048;-72
2022/12/06 08:16:15;;;;;;;13.32;5.40;;;7.00;99.90;;;;;;5016037;28;20030;-73
2022/12/06 08:18:43;;;;;;;8.43;4.40;;;7.00;99.90;;;;;;5015650;28;20032;-73
2022/12/06 08:21:09;;;;;;;12.02;5.10;;;6.90;99.90;;;;;;5015508;28;20592;-74
2022/12/06 08:23:36;;;;;;;6.70;4.25;;;6.90;99.90;;;;;;5015647;28;20037;-72
2022/12/06 08:26:11;;;;;;;6.28;4.25;;;7.00;99.90;;;;;;5030948;28;20079;-74
2022/12/06 08:28:38;;;;;;;13.25;4.32;;;7.10;99.90;;;;;;5015689;28;20398;-73
2022/12/06 08:31:10;;;;;;;6.65;3.95;;;7.10;99.90;;;;;;5015556;28;20040;-71
2022/12/06 08:33:36;;;;;;;8.63;3.97;;;7.10;99.90;;;;;;5015119;28;20044;-72
2022/12/06 08:36:07;;;;;;;7.10;3.75;;;7.10;99.90;;;;;;5014967;28;20022;-73
2022/12/06 08:38:38;;;;;;;11.05;4.40;;;7.20;99.90;;;;;;5014347;28;20030;-72
2022/12/06 08:41:54;;;;;;;7.38;3.90;;;7.20;99.90;;;;;;5015493;28;20054;-73
2022/12/06 08:43:52;;;;;;;4.72;3.85;;;7.20;99.90;;;;;;5015050;28;20026;-72
2022/12/06 08:46:17;;;;;;;7.88;3.80;;;7.20;99.90;;;;;;5015273;28;20350;-72
2022/12/06 08:48:45;;;;;;;3.88;3.47;;;7.30;99.90;;;;;;5015091;28;20038;-72
2022/12/06 08:51:14;;;;;;;6.75;3.95;;;7.40;99.90;;;;;;5013569;28;20022;-74
2022/12/06 08:53:42;;;;;;;6.68;3.70;;;7.40;99.90;;;;;;5014175;28;20465;-73
2022/12/06 08:56:10;;;;;;;9.50;4.57;;;7.30;99.90;;;;;;5014928;28;20041;-73
2022/12/06 08:58:37;;;;;;;4.88;4.05;;;7.30;99.90;;;;;;5014643;28;20053;-72
2022/12/06 09:01:17;;;;;;;8.60;4.03;;;7.40;99.90;;;;;;5015114;28;20092;-72
2022/12/06 09:03:43;;;;;;;5.43;3.78;;;7.50;99.90;;;;;;5015075;28;20384;-74
2022/12/06 09:06:10;;;;;;;11.70;4.50;;;7.50;99.90;;;;;;5014236;28;20058;-73
2022/12/06 09:08:36;;;;;;;8.20;4.47;;;7.60;99.90;;;;;;5015165;28;20096;-72
2022/12/06 09:11:04;;;;;;;10.05;4.20;;;7.60;99.90;;;;;;5014686;28;20018;-72
2022/12/06 09:13:35;;;;;;;9.43;4.28;;;7.60;99.90;;;;;;5013689;28;20022;-73
2022/12/06 09:16:09;;;;;;;9.57;4.28;;;7.70;99.90;;;;;;5015126;28;20022;-73
2022/12/06 09:18:35;;;;;;;5.15;3.67;;;7.70;99.90;;;;;;5014914;28;20026;-72
2022/12/06 09:21:13;;;;;;;11.38;4.07;;;7.70;99.90;;;;;;5014820;28;20029;-73
2022/12/06 09:23:39;;;;;;;6.20;3.97;;;7.80;99.90;;;;;;5014912;28;20022;-73
2022/12/06 09:26:05;;;;;;;5.97;4.60;;;7.90;99.90;;;;;;5014684;28;20363;-73
2022/12/06 09:28:36;;;;;;;11.15;4.25;;;7.90;99.90;;;;;;5013604;28;20033;-73
2022/12/06 09:31:03;;;;;;;8.40;6.28;;;8.00;99.90;;;;;;5014562;28;20029;-73
2022/12/06 09:33:32;;;;;;;12.38;6.93;;;8.00;99.90;;;;;;4997195;28;20032;-73
2022/12/06 09:36:00;;;;;;;6.75;5.15;;;8.10;99.90;;;;;;5014699;28;20084;-73
2022/12/06 09:38:28;;;;;;;8.32;5.05;;;8.10;99.90;;;;;;5014259;28;20030;-73
2022/12/06 09:41:24;;;;;;;10.45;6.10;;;8.10;99.90;;;;;;5014224;28;20439;-74
2022/12/06 09:44:02;;;;;;;6.60;4.03;;;8.10;99.90;;;;;;5014572;28;20040;-73
2022/12/06 09:47:17;;;;;;;7.28;4.13;;;8.20;99.90;;;;;;5015141;28;20021;-72
2022/12/06 09:49:50;;;;;;;5.82;3.78;;;8.20;99.90;;;;;;5014283;28;20038;-73
2022/12/06 09:52:45;;;;;;;6.90;4.03;;;7.90;99.90;;;;;;5033665;28;20457;-73
2022/12/06 09:55:19;;;;;;;8.50;3.72;;;8.10;99.90;;;;;;5016437;28;20061;-74
2022/12/06 09:57:48;;;;;;;7.03;4.05;;;8.20;99.90;;;;;;5018100;28;20026;-71
2022/12/06 10:00:20;;;;;;;10.80;4.00;;;8.30;99.90;;;;;;5033311;28;20099;-72
2022/12/06 10:03:01;;;;;;;13.20;5.90;;;8.40;99.90;;;;;;5017875;28;20033;-73
2022/12/06 10:05:39;;;;;;;3.58;2.60;;;8.70;99.90;;;;;;5018190;28;20030;-73
2022/12/06 10:08:45;;;;;;;5.35;3.08;;;8.50;99.90;;;;;;5017051;28;20018;-74
2022/12/06 10:11:39;;;;;;;5.20;3.45;;;8.50;99.90;;;;;;5017987;28;20090;-73
2022/12/06 10:14:25;;;;;;;5.53;3.58;;;8.60;99.90;;;;;;5018045;28;20014;-74
2022/12/06 10:17:17;;;;;;;5.80;3.42;;;8.70;99.90;;;;;;5017726;28;20451;-73
2022/12/06 10:19:48;;;;;;;4.82;2.95;;;8.60;99.90;;;;;;5033378;28;20044;-74
2022/12/06 10:22:30;;;;;;;4.22;3.20;;;8.50;99.90;;;;;;5017759;28;20030;-74
2022/12/06 10:25:06;;;;;;;7.43;3.10;;;8.50;99.90;;;;;;5033642;28;20032;-73
2022/12/06 10:27:44;;;;;;;5.50;3.85;;;8.30;99.90;;;;;;5018122;28;20030;-73
2022/12/06 10:30:12;;;;;;;6.85;3.38;;;8.40;99.90;;;;;;5016993;28;20041;-73
2022/12/06 10:32:50;;;;;;;5.78;3.50;;;8.40;99.90;;;;;;5018180;28;20052;-73
2022/12/06 10:35:39;;;;;;;8.15;3.60;;;8.40;99.90;;;;;;5017608;28;20474;-74
2022/12/06 10:38:16;;;;;;;5.70;3.20;;;8.40;99.90;;;;;;5018025;28;20032;-74
2022/12/06 10:41:01;;;;;;;5.05;3.63;;;8.30;99.90;;;;;;5033041;28;20105;-74
2022/12/06 10:44:06;;;;;;;4.53;3.70;;;8.40;99.90;;;;;;5017104;28;20033;-74
2022/12/06 10:47:19;;;;;;;6.90;3.70;;;8.50;99.90;;;;;;4995369;28;20069;-71
2022/12/06 10:49:53;;;;;;;8.02;3.85;;;8.60;99.90;;;;;;5016265;28;20041;-74
2022/12/06 10:52:24;;;;;;;8.82;5.10;;;8.80;99.90;;;;;;5016892;28;20180;-71
2022/12/06 10:55:09;;;;;;;9.95;4.10;;;9.10;99.90;;;;;;5016805;28;20351;-70
2022/12/06 10:57:54;;;;;;;5.47;3.50;;;9.60;99.90;;;;;;5016071;28;20022;-74
2022/12/06 11:00:23;;;;;;;6.28;3.30;;;9.80;99.90;;;;;;5016409;28;20540;-75
2022/12/06 11:03:11;;;;;;;6.18;3.38;;;10.20;99.90;;;;;;5017505;28;20025;-75
2022/12/06 11:05:52;;;;;;;6.80;3.50;;;10.30;99.90;;;;;;5016854;28;20079;-76
2022/12/06 11:08:31;;;;;;;5.47;3.30;;;10.60;99.90;;;;;;5016976;28;20036;-76
2022/12/06 11:11:02;;;;;;;5.40;3.40;;;10.40;99.90;;;;;;5015701;28;20056;-74
2022/12/06 11:13:36;;;;;;;3.47;3.17;;;10.40;99.90;;;;;;5016514;28;20052;-75
2022/12/06 11:16:21;;;;;;;6.80;3.40;;;10.60;99.90;;;;;;5016635;28;20137;-76
2022/12/06 11:18:48;;;;;;;4.95;3.10;;;10.70;99.90;;;;;;5016403;28;20092;-75
2022/12/06 11:21:38;;;;;;;4.57;2.97;;;10.60;99.90;;;;;;5017054;28;20073;-74
2022/12/06 11:24:32;;;;;;;7.95;3.97;;;10.70;99.90;;;;;;5016623;28;20030;-71
2022/12/06 11:27:17;;;;;;;14.20;6.15;;;10.60;99.90;;;;;;5012475;28;20125;-72
2022/12/06 11:29:46;;;;;;;6.32;2.42;;;10.40;99.90;;;;;;5016646;28;20022;-75
2022/12/06 11:32:14;;;;;;;5.53;2.83;;;10.40;99.90;;;;;;5016832;28;20063;-75
2022/12/06 11:34:50;;;;;;;3.00;2.45;;;10.40;99.90;;;;;;5015765;28;20324;-76
2022/12/06 11:37:22;;;;;;;2.92;2.72;;;10.60;99.90;;;;;;5014826;28;20467;-76
2022/12/06 11:39:55;;;;;;;3.70;2.43;;;10.90;99.90;;;;;;5015151;28;20080;-76
2022/12/06 11:42:26;;;;;;;3.70;2.95;;;10.90;99.90;;;;;;4998326;28;20077;-76
2022/12/06 11:45:09;;;;;;;6.88;2.70;;;10.50;99.90;;;;;;5014872;28;20104;-76
2022/12/06 11:47:35;;;;;;;5.10;2.42;;;10.30;99.90;;;;;;5015150;28;20390;-75
2022/12/06 11:50:03;;;;;;;5.45;2.80;;;10.30;99.90;;;;;;5014177;28;20034;-75
2022/12/06 11:52:41;;;;;;;7.68;3.00;;;10.20;99.90;;;;;;4982067;28;20033;-74
2022/12/06 11:55:22;;;;;;;8.25;2.50;;;10.40;99.90;;;;;;5013787;28;20034;-75
2022/12/06 11:58:15;;;;;;;9.25;3.35;;;10.60;99.90;;;;;;5014199;28;20034;-75
2022/12/06 12:00:56;;;;;;;3.83;2.70;;;10.70;99.90;;;;;;4993851;28;20042;-72
2022/12/06 12:03:33;;;;;;;6.88;4.50;;;10.60;99.90;;;;;;5013938;28;20345;-76
2022/12/06 12:06:27;;;;;;;3.80;2.60;;;10.50;99.90;;;;;;5013718;28;20080;-75
2022/12/06 12:09:05;;;;;;;3.92;2.65;;;10.60;99.90;;;;;;5014313;28;20030;-76
2022/12/06 12:11:38;;;;;;;4.30;2.47;;;10.80;99.90;;;;;;5015427;28;20026;-75
2022/12/06 12:14:14;;;;;;;5.35;2.58;;;11.00;99.90;;;;;;5014943;28;20105;-75
2022/12/06 12:16:47;;;;;;;4.60;2.80;;;11.20;99.90;;;;;;5015261;28;20037;-75
2022/12/06 12:19:39;;;;;;;3.00;2.30;;;11.20;99.90;;;;;;5015474;28;20095;-74
2022/12/06 12:22:26;;;;;;;4.60;2.28;;;11.60;99.90;;;;;;5016299;28;20327;-75
2022/12/06 12:24:57;;;;;;;3.13;2.83;;;11.80;99.90;;;;;;5018184;28;20026;-74
2022/12/06 12:27:38;;;;;;;6.68;3.80;;;11.60;99.90;;;;;;5017725;28;20466;-76
2022/12/06 12:30:33;;;;;;;6.75;4.38;;;11.50;99.90;;;;;;5018511;28;20136;-75
2022/12/06 12:33:05;;;;;;;4.00;2.50;;;11.50;99.90;;;;;;5017809;28;20095;-75
2022/12/06 12:35:39;;;;;;;3.45;2.55;;;11.60;99.90;;;;;;5017001;28;20045;-75
2022/12/06 12:38:08;;;;;;;4.57;2.72;;;11.70;99.90;;;;;;5020140;28;20353;-75
2022/12/06 12:40:36;;;;;;;7.55;2.83;;;12.00;99.90;;;;;;5036563;28;20049;-76
2022/12/06 12:43:14;;;;;;;2.83;2.63;;;12.40;99.90;;;;;;5019362;28;20083;-76
2022/12/06 12:46:08;;;;;;;3.35;2.45;;;12.60;99.90;;;;;;5014557;28;20312;-75
2022/12/06 12:48:38;;;;;;;3.83;1.80;;;12.60;99.90;;;;;;5014997;28;20045;-75
2022/12/06 12:51:18;;;;;;;3.40;1.77;;;12.70;99.90;;;;;;5014765;28;20109;-71
2022/12/06 12:53:44;;;;;;;4.30;1.88;;;12.80;99.90;;;;;;5013903;28;20454;-75
2022/12/06 12:56:17;;;;;;;2.55;2.00;;;13.10;99.90;;;;;;5014664;28;20018;-75
2022/12/06 12:58:47;;;;;;;3.63;2.13;;;13.40;99.90;;;;;;5014647;28;20018;-75
2022/12/06 13:01:36;;;;;;;5.72;2.25;;;13.30;99.90;;;;;;5014982;28;20455;-76
2022/12/06 13:04:28;;;;;;;2.92;2.25;;;13.20;99.90;;;;;;5014643;28;20026;-74
2022/12/06 13:07:05;;;;;;;4.55;2.17;;;13.20;99.90;;;;;;5014694;28;20108;-76
2022/12/06 13:09:57;;;;;;;3.63;2.85;;;13.00;99.90;;;;;;5030734;28;20026;-75
2022/12/06 13:12:51;;;;;;;5.90;2.83;;;12.70;99.90;;;;;;5005814;28;20054;-76
2022/12/06 13:15:35;;;;;;;5.65;3.20;;;12.00;99.90;;;;;;5014709;28;20102;-75
2022/12/06 13:18:10;;;;;;;6.47;3.60;;;11.40;99.90;;;;;;5014276;28;20033;-75
2022/12/06 13:20:36;;;;;;;5.43;3.55;;;10.80;99.90;;;;;;5013490;28;20034;-74
2022/12/06 13:23:19;;;;;;;6.13;3.78;;;10.30;99.90;;;;;;5014822;28;20080;-75
2022/12/06 13:25:56;;;;;;;8.07;3.40;;;10.10;99.90;;;;;;5013415;28;20034;-74
2022/12/06 13:28:28;;;;;;;14.73;6.45;;;9.90;99.90;;;;;;5014648;28;20105;-72
2022/12/06 13:31:02;;;;;;;12.27;3.50;;;9.70;99.90;;;;;;5014453;28;20026;-76
2022/12/06 13:33:32;;;;;;;5.85;3.10;;;9.90;99.90;;;;;;5014732;28;20038;-75
2022/12/06 13:36:08;;;;;;;5.95;2.63;;;10.00;99.90;;;;;;5014315;28;20104;-76
2022/12/06 13:38:37;;;;;;;14.02;2.90;;;10.10;99.90;;;;;;5014227;28;20044;-74
2022/12/06 13:41:07;;;;;;;6.18;2.78;;;10.10;99.90;;;;;;5067175;22;20048;-78